CABRILLO POINT NEARSHORE, CA - 158

GPS Positions

GPS Time
Latitude
Degrees
Longitude
Degrees
Gap
 
Distance
NM
Speed
Knots
Direction
Degrees
Jul 14, 04:51 36.62629° -121.90730° 30 min 0.01 0.00
329°
Jul 14, 04:21 36.62626° -121.90728° 30 min 0.01 0.03
280°
Jul 14, 03:51 36.62622° -121.90696° 30 min 0.01 0.01
180°
Jul 14, 03:21 36.62629° -121.90696° 30 min 0.01 0.01
180°
Jul 14, 02:51 36.62637° -121.90696° 30 min 0.01 0.01
135°
Jul 14, 02:21 36.62640° -121.90700° 30 min 0.01 0.00
141°
Jul 14, 01:51 36.62642° -121.90702° 30 min 0.01 0.00
90°
Jul 14, 01:21 36.62642° -121.90704° 30 min 0.01 0.00
180°
Jul 14, 00:51 36.62643° -121.90704° 30 min 0.01 0.01
304°
Jul 14, 00:21 36.62639° -121.90696° 30 min 0.01 0.00
293°
Jul 13, 23:51 36.62638° -121.90694° 30 min 0.01 0.00
90°
Jul 13, 23:21 36.62638° -121.90696° 30 min 0.01 0.00
270°
Jul 13, 22:51 36.62638° -121.90694° 30 min 0.01 0.00
Jul 13, 22:21 36.62638° -121.90694° 30 min 0.01 0.00
Jul 13, 21:51 36.62635° -121.90694° 30 min 0.01 0.00
302°
Jul 13, 21:21 36.62634° -121.90691° 30 min 0.01 0.00
208°
Jul 13, 20:51 36.62637° -121.90689° 30 min 0.01 0.01
344°
Jul 13, 20:21 36.62633° -121.90688° 30 min 0.01 0.00
28°
Jul 13, 19:51 36.62630° -121.90689° 30 min 0.01 0.00
Jul 13, 19:21 36.62629° -121.90689° 30 min 0.01 0.01
161°
Jul 13, 18:51 36.62635° -121.90691° 30 min 0.01 0.00
Jul 13, 18:21 36.62635° -121.90691° 30 min 0.01 0.01
Jul 13, 17:51 36.62630° -121.90691° 30 min 0.01 0.02
61°
Jul 13, 17:21 36.62621° -121.90713° 30 min 0.01 0.00
Jul 13, 16:51 36.62620° -121.90713° 30 min 0.01 0.01
297°
Jul 13, 16:21 36.62616° -121.90704° 30 min 0.01 0.00
270°
Jul 13, 15:51 36.62616° -121.90700° 30 min 0.01 0.00
250°
Jul 13, 15:21 36.62617° -121.90696° 30 min 0.01 0.00
208°
Jul 13, 14:51 36.62621° -121.90694° 30 min 0.01 0.00
180°
Jul 13, 14:21 36.62623° -121.90694° 30 min 0.01 0.00
Jul 13, 13:51 36.62622° -121.90694° 30 min 0.01 0.00
180°
Jul 13, 13:21 36.62624° -121.90694° 30 min 0.01 0.00
180°
Jul 13, 12:51 36.62625° -121.90694° 30 min 0.01 0.00
180°
Jul 13, 12:21 36.62626° -121.90694° 30 min 0.01 0.00
180°
Jul 13, 11:51 36.62627° -121.90694° 30 min 0.01 0.01
180°
Jul 13, 11:21 36.62633° -121.90694° 30 min 0.01 0.00
Jul 13, 10:51 36.62630° -121.90694° 30 min 0.01 0.00
180°
Jul 13, 10:21 36.62634° -121.90694° 30 min 0.01 0.01
122°
Jul 13, 09:51 36.62636° -121.90698° 30 min 0.01 0.01
100°
Jul 13, 09:21 36.62637° -121.90707° 30 min 0.00 0.01
63°
Jul 13, 08:51 36.62634° -121.90715° 30 min 0.00 0.01
58°
Jul 13, 08:21 36.62630° -121.90721° 30 min 0.01 0.01
24°
Jul 13, 07:51 36.62626° -121.90723° 30 min 0.01 0.00
332°
Jul 13, 07:21 36.62623° -121.90721° 30 min 0.01 0.01
349°
Jul 13, 06:51 36.62616° -121.90720° 30 min 0.01 0.01
341°
Jul 13, 06:21 36.62611° -121.90717° 30 min 0.01 0.00
90°
Jul 13, 05:51 36.62611° -121.90720° 30 min 0.01 0.03
162°
Jul 13, 05:21 36.62632° -121.90728° 30 min 0.01 0.00
270°
Jul 13, 04:51 36.62632° -121.90723° 30 min 0.01 0.00
Jul 13, 04:21 36.62629° -121.90723° 30 min 0.01 0.01
344°
Jul 13, 03:51 36.62619° -121.90720° 30 min 0.01 0.02
284°
Jul 13, 03:21 36.62616° -121.90704° 30 min 0.01 0.01
302°
Jul 13, 02:51 36.62613° -121.90700° 30 min 0.01 0.00
290°
Jul 13, 02:21 36.62612° -121.90696° 30 min 0.01 0.00
180°
Jul 13, 01:51 36.62616° -121.90696° 30 min 0.01 0.01
197°
Jul 13, 01:21 36.62627° -121.90691° 30 min 0.01 0.00
Jul 13, 00:51 36.62627° -121.90691° 30 min 0.01 0.00
302°
Jul 13, 00:21 36.62626° -121.90689° 30 min 0.01 0.00
39°
Jul 12, 23:51 36.62624° -121.90691° 30 min 0.01 0.01
19°
Jul 12, 23:21 36.62619° -121.90694° 30 min 0.01 0.00
180°
Jul 12, 22:51 36.62620° -121.90694° 30 min 0.01 0.01
180°
Jul 12, 22:21 36.62625° -121.90694° 30 min 0.01 0.00
238°
Jul 12, 21:51 36.62626° -121.90691° 30 min 0.01 0.00
270°
Jul 12, 21:21 36.62626° -121.90689° 30 min 0.01 0.00
Jul 12, 20:51 36.62626° -121.90689° 30 min 0.01 0.01
180°
Jul 12, 20:21 36.62633° -121.90689° 30 min 0.01 0.00
Jul 12, 19:51 36.62633° -121.90689° 30 min 0.01 0.00
113°
Jul 12, 19:21 36.62634° -121.90691° 30 min 0.01 0.00
293°
Jul 12, 18:51 36.62633° -121.90689° 30 min 0.01 0.00
90°
Jul 12, 18:21 36.62633° -121.90691° 30 min 0.01 0.00
Jul 12, 17:51 36.62633° -121.90691° 30 min 0.01 0.00
58°
Jul 12, 17:21 36.62632° -121.90694° 30 min 0.01 0.01
336°
Jul 12, 16:51 36.62627° -121.90691° 30 min 0.01 0.00
39°
Jul 12, 16:21 36.62625° -121.90694° 30 min 0.01 0.01
55°
Jul 12, 15:51 36.62622° -121.90700° 30 min 0.01 0.01
60°
Jul 12, 15:21 36.62617° -121.90709° 30 min 0.01 0.00
253°
Jul 12, 14:51 36.62619° -121.90704° 30 min 0.01 0.01
50°
Jul 12, 14:21 36.62616° -121.90709° 30 min 0.01 0.01
255°
Jul 12, 13:51 36.62617° -121.90700° 30 min 0.01 0.00
Jul 12, 13:21 36.62616° -121.90700° 30 min 0.01 0.00
270°
Jul 12, 12:51 36.62616° -121.90698° 30 min 0.01 0.00
302°
Jul 12, 12:21 36.62614° -121.90696° 30 min 0.01 0.00
Jul 12, 11:51 36.62612° -121.90696° 30 min 0.01 0.00
90°
Jul 12, 11:21 36.62612° -121.90700° 30 min 0.01 0.00
250°
Jul 12, 10:51 36.62613° -121.90696° 30 min 0.01 0.00
110°
Jul 12, 10:21 36.62614° -121.90700° 30 min 0.01 0.00
180°
Jul 12, 09:51 36.62616° -121.90700° 30 min 0.01 0.01
90°
Jul 12, 09:21 36.62616° -121.90707° 30 min 0.01 0.00
270°
Jul 12, 08:51 36.62616° -121.90704° 30 min 0.01 0.01
58°
Jul 12, 08:21 36.62613° -121.90710° 30 min 0.01 0.01
295°
Jul 12, 07:51 36.62611° -121.90704° 30 min 0.01 0.03
141°
Jul 12, 07:21 36.62627° -121.90721° 30 min 0.01 0.00
117°
Jul 12, 06:51 36.62629° -121.90726° 30 min 0.01 0.00
180°
Jul 12, 06:21 36.62630° -121.90726° 30 min 0.01 0.00
Jul 12, 05:51 36.62629° -121.90726° 30 min 0.01 0.00
180°
Jul 12, 05:21 36.62633° -121.90726° 30 min 0.01 0.02
246°
Jul 12, 04:51 36.62638° -121.90710° 30 min 0.00 0.02
295°
Jul 12, 04:21 36.62633° -121.90696° 30 min 0.01 0.01
350°
Jul 12, 03:51 36.62623° -121.90694° 30 min 0.01 0.01
27°
Jul 12, 03:21 36.62613° -121.90700° 30 min 0.01 0.01
257°
Jul 12, 02:51 36.62614° -121.90694° 30 min 0.01 0.00
Jul 12, 02:21 36.62614° -121.90694° 30 min 0.01 0.00
270°
Jul 12, 01:51 36.62614° -121.90691° 30 min 0.01 0.00
250°
Jul 12, 01:21 36.62616° -121.90688° 30 min 0.01 0.01
180°
Jul 12, 00:51 36.62625° -121.90688° 30 min 0.01 0.00
180°
Jul 12, 00:21 36.62628° -121.90688° 30 min 0.01 0.00
152°
Jul 11, 23:51 36.62630° -121.90689° 30 min 0.01 0.00
Jul 11, 23:21 36.62629° -121.90689° 30 min 0.01 0.00
Jul 11, 22:51 36.62628° -121.90689° 30 min 0.01 0.00
327°
Jul 11, 22:21 36.62626° -121.90688° 30 min 0.01 0.00
47°
Jul 11, 21:51 36.62625° -121.90689° 30 min 0.01 0.00
Jul 11, 21:21 36.62625° -121.90689° 30 min 0.01 0.00
313°
Jul 11, 20:51 36.62624° -121.90688° 30 min 0.01 0.00
152°
Jul 11, 20:21 36.62626° -121.90689° 30 min 0.01 0.00
122°
Jul 11, 19:51 36.62627° -121.90691° 30 min 0.01 0.01
18°
Jul 11, 19:21 36.62622° -121.90694° 30 min 0.01 0.02
64°
Jul 11, 18:51 36.62616° -121.90709° 30 min 0.01 0.00
270°
Jul 11, 18:21 36.62616° -121.90707° 30 min 0.01 0.01
199°
Jul 11, 17:51 36.62621° -121.90704° 30 min 0.01 0.01
134°
Jul 11, 17:21 36.62629° -121.90715° 30 min 0.00 0.01
201°
Jul 11, 16:51 36.62639° -121.90710° 30 min 0.01 0.00
Jul 11, 16:21 36.62639° -121.90710° 30 min 0.01 0.00
90°
Jul 11, 15:51 36.62639° -121.90715° 30 min 0.01 0.00
Jul 11, 15:21 36.62639° -121.90715° 30 min 0.01 0.01
69°
Jul 11, 14:51 36.62637° -121.90721° 30 min 0.01 0.01
257°
Jul 11, 14:21 36.62639° -121.90710° 30 min 0.01 0.00
250°
Jul 11, 13:51 36.62640° -121.90707° 30 min 0.01 0.00
302°
Jul 11, 13:21 36.62639° -121.90704° 30 min 0.01 0.00
Jul 11, 12:51 36.62638° -121.90704° 30 min 0.01 0.00
270°
Jul 11, 12:21 36.62638° -121.90702° 30 min 0.01 0.00
113°
Jul 11, 11:51 36.62639° -121.90704° 30 min 0.01 0.00
270°
Jul 11, 11:21 36.62639° -121.90702° 30 min 0.01 0.00
293°
Jul 11, 10:51 36.62638° -121.90700° 30 min 0.01 0.01
317°
Jul 11, 10:21 36.62633° -121.90694° 30 min 0.01 0.01
Jul 11, 09:51 36.62622° -121.90694° 30 min 0.01 0.00
67°
Jul 11, 09:21 36.62621° -121.90696° 30 min 0.01 0.00
270°
Jul 11, 08:51 36.62621° -121.90694° 30 min 0.01 0.00
Jul 11, 08:21 36.62619° -121.90694° 30 min 0.01 0.00
Jul 11, 07:51 36.62616° -121.90694° 30 min 0.01 0.00
Jul 11, 07:21 36.62616° -121.90694° 30 min 0.01 0.00
Jul 11, 06:51 36.62613° -121.90694° 30 min 0.01 0.01
199°
Jul 11, 06:21 36.62619° -121.90691° 30 min 0.01 0.00
180°
Jul 11, 05:51 36.62620° -121.90691° 30 min 0.01 0.01
32°